Time;durP1;ratioP1;P1;durP2;ratioP2;P2;SDS_P1;SDS_P2;PMS_P1;PMS_P2;Temp;Humidity;BMP_temperature;BMP_pressure;BME280_temperature;BME280_humidity;BME280_pressure;Samples;Min_cycle;Max_cycle;Signal;HPM_P1;HPM_P2
2023/11/03 00:01:17;;;;;;;13.83;13.33;;;9.10;99.90;;;;;;5019647;27;20477;-70
2023/11/03 00:03:44;;;;;;;13.17;12.77;;;9.10;99.90;;;;;;5020050;27;20473;-71
2023/11/03 00:06:11;;;;;;;13.33;12.93;;;9.20;99.90;;;;;;5023445;27;20472;-70
2023/11/03 00:08:38;;;;;;;13.07;12.67;;;9.30;99.90;;;;;;5030038;27;21057;-72
2023/11/03 00:11:05;;;;;;;13.33;12.93;;;9.30;99.90;;;;;;5031767;27;20967;-72
2023/11/03 00:13:35;;;;;;;13.00;12.60;;;9.30;99.90;;;;;;5020570;28;21199;-70
2023/11/03 00:16:02;;;;;;;13.23;12.83;;;9.30;99.90;;;;;;5017420;27;20538;-74
2023/11/03 00:18:31;;;;;;;13.17;12.77;;;9.40;99.90;;;;;;5024785;27;20918;-71
2023/11/03 00:20:58;;;;;;;13.07;12.67;;;9.40;99.90;;;;;;5014398;27;20459;-70
2023/11/03 00:23:24;;;;;;;13.20;12.80;;;9.40;99.90;;;;;;5024746;27;20456;-70
2023/11/03 00:25:51;;;;;;;13.53;13.13;;;9.30;99.90;;;;;;5028248;27;20899;-73
2023/11/03 00:28:17;;;;;;;13.13;12.73;;;9.30;99.90;;;;;;5027343;28;20484;-70
2023/11/03 00:30:45;;;;;;;13.20;12.80;;;9.40;99.90;;;;;;5018517;27;20466;-70
2023/11/03 00:33:17;;;;;;;13.23;12.83;;;9.30;99.90;;;;;;5015589;27;20844;-70
2023/11/03 00:35:45;;;;;;;13.20;12.80;;;9.30;99.90;;;;;;5024302;27;20453;-70
2023/11/03 00:38:13;;;;;;;13.20;12.80;;;9.30;99.90;;;;;;5014607;27;20470;-72
2023/11/03 00:40:39;;;;;;;13.20;12.80;;;9.40;99.90;;;;;;5023262;27;20464;-70
2023/11/03 00:43:06;;;;;;;13.40;13.00;;;9.40;99.90;;;;;;5017010;27;20466;-72
2023/11/03 00:45:33;;;;;;;13.27;12.87;;;9.40;99.90;;;;;;5015063;27;20497;-70
2023/11/03 00:48:00;;;;;;;12.80;12.40;;;9.30;99.90;;;;;;5026915;28;20465;-70
2023/11/03 00:50:27;;;;;;;13.70;13.30;;;9.40;99.90;;;;;;5019013;28;20936;-70
2023/11/03 00:52:55;;;;;;;13.23;12.83;;;9.30;99.90;;;;;;5015730;27;20501;-70
2023/11/03 00:55:22;;;;;;;13.17;12.77;;;9.30;99.90;;;;;;5022728;27;20513;-72
2023/11/03 00:57:49;;;;;;;13.43;13.03;;;9.40;99.90;;;;;;5019555;28;20965;-70
2023/11/03 01:00:17;;;;;;;13.10;12.70;;;9.40;99.90;;;;;;5013378;28;20476;-71
2023/11/03 01:02:44;;;;;;;12.87;12.47;;;9.40;99.90;;;;;;5022307;28;20481;-71
2023/11/03 01:05:14;;;;;;;13.23;12.83;;;9.50;99.90;;;;;;5021021;27;20895;-74
2023/11/03 01:07:41;;;;;;;13.20;12.80;;;9.50;99.90;;;;;;5026878;27;20483;-71
2023/11/03 01:10:10;;;;;;;13.47;13.07;;;9.50;99.90;;;;;;5027036;28;20669;-69
2023/11/03 01:12:37;;;;;;;13.50;13.10;;;9.50;99.90;;;;;;5018014;27;20493;-73
2023/11/03 01:15:06;;;;;;;12.07;11.77;;;9.60;99.90;;;;;;5024326;27;20828;-69
2023/11/03 01:17:33;;;;;;;12.80;12.40;;;9.60;99.90;;;;;;5017410;28;20469;-70
2023/11/03 01:20:00;;;;;;;12.90;12.50;;;9.60;99.90;;;;;;5017898;28;20505;-74
2023/11/03 01:22:29;;;;;;;12.97;12.57;;;9.60;99.90;;;;;;5019462;28;20465;-73
2023/11/03 01:24:59;;;;;;;12.70;12.30;;;9.60;99.90;;;;;;5021630;28;20486;-70
2023/11/03 01:27:27;;;;;;;12.83;12.43;;;9.60;99.90;;;;;;5026944;28;21095;-70
2023/11/03 01:29:54;;;;;;;12.33;12.03;;;9.60;99.90;;;;;;5019940;28;20488;-70
2023/11/03 01:32:21;;;;;;;12.60;12.20;;;9.60;99.90;;;;;;5025101;28;20492;-69
2023/11/03 01:34:47;;;;;;;12.80;12.40;;;9.60;99.90;;;;;;5016622;28;20842;-70
2023/11/03 01:37:15;;;;;;;13.13;12.73;;;9.60;99.90;;;;;;5011649;28;20473;-69
2023/11/03 01:39:42;;;;;;;13.10;12.70;;;9.60;99.90;;;;;;5025485;28;20864;-71
2023/11/03 01:42:09;;;;;;;12.93;12.53;;;9.60;99.90;;;;;;5018843;28;20496;-70
2023/11/03 01:44:38;;;;;;;13.30;12.90;;;9.60;99.90;;;;;;5023498;28;20852;-70
2023/11/03 01:47:05;;;;;;;12.97;12.57;;;9.60;99.90;;;;;;5018195;28;21536;-70
2023/11/03 01:49:32;;;;;;;13.27;12.87;;;9.60;99.90;;;;;;5022606;28;20510;-70
2023/11/03 01:52:00;;;;;;;13.27;12.87;;;9.60;99.90;;;;;;5016188;28;20883;-70
2023/11/03 01:54:27;;;;;;;13.30;12.90;;;9.60;99.90;;;;;;5016428;28;20451;-70
2023/11/03 01:56:54;;;;;;;13.40;13.00;;;9.50;99.90;;;;;;5025839;28;20457;-73
2023/11/03 01:59:22;;;;;;;13.13;12.73;;;9.50;99.90;;;;;;5022701;28;20474;-73
2023/11/03 02:01:53;;;;;;;13.67;13.27;;;9.50;99.90;;;;;;5013008;28;20453;-71
2023/11/03 02:04:20;;;;;;;13.20;12.80;;;9.60;99.90;;;;;;5019368;28;20461;-71
2023/11/03 02:06:47;;;;;;;13.00;12.60;;;9.60;99.90;;;;;;5021415;28;20537;-70
2023/11/03 02:09:14;;;;;;;13.40;13.00;;;9.60;99.90;;;;;;5024029;28;20474;-70
2023/11/03 02:11:44;;;;;;;13.30;12.90;;;9.60;99.90;;;;;;5018899;28;20972;-72
2023/11/03 02:14:11;;;;;;;13.27;12.87;;;9.60;99.90;;;;;;5022561;28;20964;-70
2023/11/03 02:16:38;;;;;;;12.90;12.50;;;9.60;99.90;;;;;;5016324;28;20461;-72
2023/11/03 02:19:09;;;;;;;13.07;12.67;;;9.60;99.90;;;;;;5021798;28;20465;-70
2023/11/03 02:21:38;;;;;;;13.40;13.00;;;9.60;99.90;;;;;;5013335;28;20474;-72
2023/11/03 02:24:08;;;;;;;13.30;12.90;;;9.60;99.90;;;;;;5020249;28;20465;-70
2023/11/03 02:26:34;;;;;;;13.30;12.90;;;9.50;99.90;;;;;;5019559;28;20474;-73
2023/11/03 02:29:03;;;;;;;13.20;12.80;;;9.50;99.90;;;;;;5023670;28;20843;-70
2023/11/03 02:31:30;;;;;;;12.47;12.17;;;9.60;99.90;;;;;;5025924;28;20875;-72
2023/11/03 02:33:57;;;;;;;12.90;12.50;;;9.60;99.90;;;;;;5019429;28;20485;-70
2023/11/03 02:36:24;;;;;;;12.70;12.30;;;9.50;99.90;;;;;;5023567;27;20457;-70
2023/11/03 02:38:52;;;;;;;12.40;12.10;;;9.60;99.90;;;;;;5021916;27;20480;-70
2023/11/03 02:41:21;;;;;;;13.10;12.70;;;9.60;99.90;;;;;;5023856;27;20479;-70
2023/11/03 02:43:48;;;;;;;12.87;12.47;;;9.60;99.90;;;;;;5028478;27;20492;-71
2023/11/03 02:46:15;;;;;;;12.77;12.37;;;9.60;99.90;;;;;;5023188;27;20711;-71
2023/11/03 02:48:42;;;;;;;12.40;12.10;;;9.60;99.90;;;;;;5019853;27;20537;-69
2023/11/03 02:51:12;;;;;;;12.90;12.50;;;9.60;99.90;;;;;;5025619;27;20457;-69
2023/11/03 02:53:40;;;;;;;12.83;12.43;;;9.60;99.90;;;;;;5029621;27;20501;-69
2023/11/03 02:56:07;;;;;;;12.33;12.03;;;9.60;99.90;;;;;;5021641;28;20501;-70
2023/11/03 02:58:38;;;;;;;12.80;12.40;;;9.60;99.90;;;;;;5020923;27;20472;-70
2023/11/03 03:01:07;;;;;;;13.37;12.97;;;9.60;99.90;;;;;;5026509;27;20846;-71
2023/11/03 03:03:34;;;;;;;12.67;12.27;;;9.60;99.90;;;;;;5016360;27;20477;-71
2023/11/03 03:06:01;;;;;;;12.97;12.57;;;9.70;99.90;;;;;;5023189;27;21117;-70
2023/11/03 03:08:29;;;;;;;12.53;12.20;;;9.70;99.90;;;;;;5029148;27;20450;-74
2023/11/03 03:10:56;;;;;;;13.10;12.70;;;9.70;99.90;;;;;;5019601;28;20945;-70
2023/11/03 03:13:22;;;;;;;12.53;12.17;;;9.80;99.90;;;;;;5022221;27;20488;-72
2023/11/03 03:15:50;;;;;;;13.17;12.77;;;9.80;99.90;;;;;;5027289;27;20465;-72
2023/11/03 03:18:18;;;;;;;13.07;12.67;;;9.70;99.90;;;;;;5018626;27;20473;-72
2023/11/03 03:20:45;;;;;;;12.30;12.00;;;9.70;99.90;;;;;;5023607;27;20478;-69
2023/11/03 03:23:12;;;;;;;12.93;12.53;;;9.70;99.90;;;;;;5015856;27;20466;-69
2023/11/03 03:25:39;;;;;;;12.50;12.20;;;9.70;99.90;;;;;;5020368;28;20457;-70
2023/11/03 03:28:06;;;;;;;13.17;12.77;;;9.70;99.90;;;;;;5028301;27;20464;-72
2023/11/03 03:30:33;;;;;;;13.00;12.60;;;9.70;99.90;;;;;;5028466;27;20469;-71
2023/11/03 03:33:01;;;;;;;12.80;12.40;;;9.60;99.90;;;;;;5020051;27;20858;-69
2023/11/03 03:35:28;;;;;;;13.00;12.60;;;9.70;99.90;;;;;;5015528;27;20477;-69
2023/11/03 03:37:54;;;;;;;13.47;13.07;;;9.60;99.90;;;;;;5013410;27;20837;-71
2023/11/03 03:40:21;;;;;;;12.77;12.37;;;9.60;99.90;;;;;;5022293;27;20492;-69
2023/11/03 03:42:48;;;;;;;13.20;12.80;;;9.60;99.90;;;;;;5026739;27;20445;-72
2023/11/03 03:45:16;;;;;;;13.10;12.70;;;9.60;99.90;;;;;;5026152;27;20496;-70
2023/11/03 03:47:44;;;;;;;12.90;12.50;;;9.60;99.90;;;;;;5028619;27;20540;-69
2023/11/03 03:50:12;;;;;;;12.77;12.37;;;9.60;99.90;;;;;;5020209;27;20505;-71
2023/11/03 03:52:38;;;;;;;12.97;12.57;;;9.60;99.90;;;;;;5018448;28;20489;-70
2023/11/03 03:55:06;;;;;;;12.90;12.50;;;9.50;99.90;;;;;;5026059;27;20462;-71
2023/11/03 03:57:33;;;;;;;13.00;12.60;;;9.50;99.90;;;;;;5028650;28;20458;-70
2023/11/03 04:00:00;;;;;;;13.50;13.10;;;9.50;99.90;;;;;;5020365;27;20516;-69
2023/11/03 04:02:28;;;;;;;13.07;12.67;;;9.40;99.90;;;;;;5016876;27;20470;-71
2023/11/03 04:04:55;;;;;;;13.27;12.87;;;9.40;99.90;;;;;;5022896;27;20450;-70
2023/11/03 04:07:23;;;;;;;12.90;12.50;;;9.40;99.90;;;;;;5021803;27;20981;-69
2023/11/03 04:09:51;;;;;;;13.40;13.00;;;9.30;99.90;;;;;;5034118;27;20936;-73
2023/11/03 04:12:18;;;;;;;12.87;12.47;;;9.30;99.90;;;;;;5022418;27;20466;-70
2023/11/03 04:14:45;;;;;;;13.20;12.80;;;9.30;99.90;;;;;;5019564;27;20457;-69
2023/11/03 04:17:13;;;;;;;13.07;12.67;;;9.30;99.90;;;;;;5018178;28;20465;-70
2023/11/03 04:19:40;;;;;;;13.00;12.60;;;9.30;99.90;;;;;;5021978;27;20458;-70
2023/11/03 04:22:06;;;;;;;12.80;12.40;;;9.30;99.90;;;;;;5017983;27;20462;-69
2023/11/03 04:24:34;;;;;;;13.00;12.60;;;9.30;99.90;;;;;;5021972;27;20870;-73
2023/11/03 04:27:02;;;;;;;12.87;12.47;;;9.20;99.90;;;;;;5027762;27;20466;-71
2023/11/03 04:29:28;;;;;;;12.90;12.50;;;9.20;99.90;;;;;;5019672;27;20457;-71
2023/11/03 04:31:55;;;;;;;12.70;12.30;;;9.20;99.90;;;;;;5017090;27;20526;-69
2023/11/03 04:34:22;;;;;;;12.73;12.33;;;9.20;99.90;;;;;;5024393;27;20860;-74
2023/11/03 04:36:50;;;;;;;12.87;12.47;;;9.20;99.90;;;;;;5021080;27;20559;-72
2023/11/03 04:39:17;;;;;;;12.53;12.13;;;9.20;99.90;;;;;;5026915;28;20489;-71
2023/11/03 04:41:46;;;;;;;12.83;12.43;;;9.10;99.90;;;;;;5017754;27;20586;-69
2023/11/03 04:44:13;;;;;;;13.00;12.60;;;9.10;99.90;;;;;;5026087;27;20583;-70
2023/11/03 04:46:40;;;;;;;12.70;12.30;;;9.10;99.90;;;;;;5027034;28;20809;-71
2023/11/03 04:49:08;;;;;;;12.60;12.20;;;9.10;99.90;;;;;;5021773;27;20477;-71
2023/11/03 04:51:36;;;;;;;12.47;12.07;;;9.20;99.90;;;;;;5023925;27;20988;-70
2023/11/03 04:54:04;;;;;;;13.00;12.60;;;9.20;99.90;;;;;;5019313;27;20493;-72
2023/11/03 04:56:30;;;;;;;13.13;12.73;;;9.20;99.90;;;;;;5016192;28;20462;-73
2023/11/03 04:58:58;;;;;;;13.13;12.73;;;9.20;99.90;;;;;;5023353;27;20453;-70
2023/11/03 05:01:25;;;;;;;13.67;13.27;;;9.20;99.90;;;;;;5020570;28;20478;-72
2023/11/03 05:03:52;;;;;;;13.40;13.00;;;9.10;99.90;;;;;;5014798;28;20480;-71
2023/11/03 05:06:19;;;;;;;14.00;13.50;;;9.10;99.90;;;;;;5012089;27;20552;-74
2023/11/03 05:08:46;;;;;;;12.90;12.50;;;9.10;99.90;;;;;;5022454;27;20458;-70
2023/11/03 05:11:13;;;;;;;13.50;13.10;;;9.00;99.90;;;;;;5017329;28;20994;-70
2023/11/03 05:13:41;;;;;;;13.27;12.87;;;9.00;99.90;;;;;;5014147;27;20486;-72
2023/11/03 05:16:09;;;;;;;13.10;12.70;;;9.00;99.90;;;;;;5022452;28;20927;-73
2023/11/03 05:18:38;;;;;;;13.37;12.97;;;9.00;99.90;;;;;;5022317;28;20781;-72
2023/11/03 05:21:05;;;;;;;13.37;12.97;;;9.00;99.90;;;;;;5015829;28;20458;-74
2023/11/03 05:23:32;;;;;;;13.27;12.87;;;9.00;99.90;;;;;;5013942;28;20457;-71
2023/11/03 05:25:59;;;;;;;13.20;12.80;;;9.00;99.90;;;;;;5020535;28;20462;-71
2023/11/03 05:28:26;;;;;;;13.10;12.70;;;9.00;99.90;;;;;;5024540;27;20839;-70
2023/11/03 05:30:54;;;;;;;13.67;13.27;;;9.00;99.90;;;;;;5012038;28;20458;-73
2023/11/03 05:33:22;;;;;;;13.13;12.73;;;9.00;99.90;;;;;;5019579;28;21511;-70
2023/11/03 05:35:48;;;;;;;13.23;12.83;;;9.00;99.90;;;;;;5009349;28;20466;-70
2023/11/03 05:38:16;;;;;;;12.97;12.57;;;9.00;99.90;;;;;;5016857;28;21397;-71
2023/11/03 05:40:43;;;;;;;13.43;13.03;;;9.00;99.90;;;;;;5015906;28;20542;-70
2023/11/03 05:43:10;;;;;;;13.70;13.30;;;9.00;99.90;;;;;;5023388;28;20489;-73
2023/11/03 05:45:36;;;;;;;13.50;13.10;;;9.00;99.90;;;;;;5018358;28;20501;-71
2023/11/03 05:48:03;;;;;;;13.33;12.93;;;9.00;99.90;;;;;;5020369;28;20966;-71
2023/11/03 05:50:32;;;;;;;13.27;12.87;;;9.00;99.90;;;;;;5016876;28;20469;-71
2023/11/03 05:52:59;;;;;;;12.80;12.40;;;8.90;99.90;;;;;;5021632;28;20462;-71
2023/11/03 05:55:26;;;;;;;12.90;12.50;;;8.90;99.90;;;;;;5008820;28;20474;-70
2023/11/03 05:57:53;;;;;;;13.53;13.13;;;8.90;99.90;;;;;;5024939;28;20453;-73
2023/11/03 06:00:21;;;;;;;13.50;13.10;;;8.90;99.90;;;;;;5025577;28;20449;-72
2023/11/03 06:02:50;;;;;;;13.60;13.20;;;8.90;99.90;;;;;;5021753;28;20469;-71
2023/11/03 06:05:17;;;;;;;13.30;12.90;;;8.90;99.90;;;;;;5016892;28;20557;-69
2023/11/03 06:07:45;;;;;;;13.40;13.00;;;8.90;99.90;;;;;;5014817;28;20465;-71
2023/11/03 06:10:14;;;;;;;13.37;12.97;;;8.90;99.90;;;;;;5016458;28;20474;-70
2023/11/03 06:12:42;;;;;;;13.20;12.80;;;8.90;99.90;;;;;;5017363;27;20466;-71
2023/11/03 06:15:09;;;;;;;13.37;12.97;;;8.90;99.90;;;;;;5024759;27;21095;-71
2023/11/03 06:17:36;;;;;;;13.30;12.90;;;9.00;99.90;;;;;;5022283;27;20465;-74
2023/11/03 06:20:04;;;;;;;13.10;12.70;;;8.90;99.90;;;;;;5027641;27;20457;-70
2023/11/03 06:22:31;;;;;;;13.03;12.63;;;8.90;99.90;;;;;;5025160;28;20770;-71
2023/11/03 06:24:59;;;;;;;13.60;13.20;;;8.90;99.90;;;;;;5021081;27;20466;-71
2023/11/03 06:27:26;;;;;;;13.03;12.63;;;9.00;99.90;;;;;;5012267;27;20581;-73
2023/11/03 06:29:53;;;;;;;13.60;13.20;;;9.00;99.90;;;;;;5024111;27;20920;-70
2023/11/03 06:32:19;;;;;;;13.47;13.07;;;9.00;99.90;;;;;;5019195;27;20895;-71
2023/11/03 06:34:46;;;;;;;13.27;12.87;;;9.00;99.90;;;;;;5026296;28;20496;-70
2023/11/03 06:37:13;;;;;;;13.50;13.10;;;9.00;99.90;;;;;;5017303;27;20967;-70
2023/11/03 06:39:40;;;;;;;13.20;12.80;;;9.00;99.90;;;;;;5026857;27;20446;-72
2023/11/03 06:42:09;;;;;;;13.63;13.23;;;9.00;99.90;;;;;;5026834;27;20461;-73
2023/11/03 06:44:36;;;;;;;13.50;13.10;;;9.10;99.90;;;;;;5021348;27;20531;-70
2023/11/03 06:47:03;;;;;;;13.30;12.90;;;9.10;99.90;;;;;;5017540;27;20525;-73
2023/11/03 06:49:30;;;;;;;13.00;12.60;;;9.20;99.90;;;;;;5020029;27;20892;-70
2023/11/03 06:51:58;;;;;;;13.10;12.70;;;9.30;99.90;;;;;;5015108;27;20468;-70
2023/11/03 06:54:24;;;;;;;13.17;12.77;;;9.30;99.90;;;;;;5025046;27;20485;-70
2023/11/03 06:56:51;;;;;;;12.73;12.33;;;9.40;99.90;;;;;;5028377;27;20460;-70
2023/11/03 06:59:19;;;;;;;12.87;12.47;;;9.40;99.90;;;;;;5024995;27;20467;-73
2023/11/03 07:01:46;;;;;;;13.40;13.00;;;9.50;99.90;;;;;;5015020;27;20466;-70
2023/11/03 07:04:14;;;;;;;13.00;12.60;;;9.60;99.90;;;;;;5012514;27;20458;-69
2023/11/03 07:06:41;;;;;;;13.27;12.87;;;9.50;99.90;;;;;;5018890;27;20449;-72
2023/11/03 07:09:09;;;;;;;13.70;13.30;;;9.60;99.90;;;;;;5020463;27;20470;-71
2023/11/03 07:11:36;;;;;;;13.50;13.10;;;9.70;99.90;;;;;;5017928;27;20903;-70
2023/11/03 07:14:05;;;;;;;13.90;13.40;;;9.70;99.90;;;;;;5010556;27;20494;-71
2023/11/03 07:16:33;;;;;;;14.40;13.90;;;9.80;99.90;;;;;;5022852;27;20454;-72
2023/11/03 07:19:00;;;;;;;14.30;13.80;;;9.90;99.90;;;;;;5026319;27;20973;-74
2023/11/03 07:21:27;;;;;;;14.27;13.77;;;10.00;99.90;;;;;;5019181;27;21009;-70
2023/11/03 07:23:54;;;;;;;14.30;13.80;;;10.00;99.90;;;;;;5014980;27;20461;-72
2023/11/03 07:26:23;;;;;;;14.07;13.57;;;10.10;99.90;;;;;;5012607;27;20953;-70
2023/11/03 07:28:50;;;;;;;14.27;13.77;;;10.10;99.90;;;;;;5021113;27;20457;-76
2023/11/03 07:31:18;;;;;;;14.30;13.80;;;10.20;99.90;;;;;;5021646;28;20477;-71
2023/11/03 07:33:46;;;;;;;14.30;13.80;;;10.40;99.90;;;;;;5022699;27;20485;-70
2023/11/03 07:36:13;;;;;;;14.50;14.00;;;10.40;99.90;;;;;;5023526;27;20485;-73
2023/11/03 07:38:40;;;;;;;14.10;13.60;;;10.40;99.90;;;;;;5010572;27;20525;-73
2023/11/03 07:41:08;;;;;;;14.37;13.87;;;10.50;99.90;;;;;;5025093;27;20514;-71
2023/11/03 07:43:36;;;;;;;14.53;14.03;;;10.60;99.90;;;;;;5023309;27;20473;-71
2023/11/03 07:46:03;;;;;;;14.43;13.93;;;10.50;99.90;;;;;;5019501;27;20548;-72
2023/11/03 07:48:30;;;;;;;14.50;14.00;;;10.50;99.90;;;;;;5015381;27;20462;-71
2023/11/03 07:50:59;;;;;;;14.13;13.63;;;10.60;99.90;;;;;;5013824;27;20473;-71
2023/11/03 07:53:26;;;;;;;14.13;13.63;;;10.60;99.90;;;;;;5023554;27;20553;-73
2023/11/03 07:55:54;;;;;;;14.20;13.70;;;10.70;99.90;;;;;;5027536;27;20811;-71
2023/11/03 07:58:22;;;;;;;14.30;13.80;;;10.60;99.90;;;;;;5024115;27;20969;-72
2023/11/03 08:00:49;;;;;;;14.43;13.93;;;10.60;99.90;;;;;;5023004;27;20815;-70
2023/11/03 08:03:17;;;;;;;14.30;13.80;;;10.80;99.90;;;;;;5017123;27;20476;-74
2023/11/03 08:05:44;;;;;;;14.73;14.23;;;10.80;99.90;;;;;;5015786;27;20449;-73
2023/11/03 08:08:14;;;;;;;14.63;14.13;;;10.70;99.90;;;;;;5016213;27;20468;-71
2023/11/03 08:10:40;;;;;;;14.37;13.87;;;10.80;99.90;;;;;;5031672;27;20464;-71
2023/11/03 08:13:08;;;;;;;14.33;13.83;;;10.80;99.90;;;;;;5026050;27;21041;-71
2023/11/03 08:15:35;;;;;;;14.77;14.27;;;10.90;99.90;;;;;;5022552;27;21295;-71
2023/11/03 08:18:03;;;;;;;14.73;14.23;;;10.80;99.90;;;;;;5022431;28;20530;-70
2023/11/03 08:20:29;;;;;;;14.50;14.00;;;10.80;99.90;;;;;;5016161;28;20933;-69
2023/11/03 08:22:58;;;;;;;14.07;13.57;;;10.80;99.90;;;;;;5021754;27;20471;-69
2023/11/03 08:25:26;;;;;;;14.80;14.30;;;10.90;99.90;;;;;;5010831;28;20466;-71
2023/11/03 08:27:53;;;;;;;14.50;14.00;;;10.80;99.90;;;;;;5026129;27;20460;-73
2023/11/03 08:30:21;;;;;;;14.60;14.10;;;10.80;99.90;;;;;;5026003;28;20841;-71
2023/11/03 08:32:50;;;;;;;14.43;13.93;;;10.70;99.90;;;;;;5023869;27;20461;-71
2023/11/03 08:35:17;;;;;;;13.97;13.47;;;10.70;99.90;;;;;;5023869;27;20539;-71
2023/11/03 08:37:44;;;;;;;14.80;14.30;;;10.80;99.90;;;;;;5024028;27;20465;-70
2023/11/03 08:40:13;;;;;;;14.60;14.10;;;10.70;99.90;;;;;;5026252;28;20461;-70
2023/11/03 08:42:43;;;;;;;14.37;13.87;;;10.70;99.90;;;;;;5025532;27;20577;-70
2023/11/03 08:45:11;;;;;;;14.50;14.00;;;10.70;99.90;;;;;;5022226;27;20542;-70
2023/11/03 08:47:41;;;;;;;14.53;14.03;;;10.70;99.90;;;;;;5025743;28;20893;-70
2023/11/03 08:50:09;;;;;;;14.60;14.10;;;10.90;99.90;;;;;;5011861;28;20506;-70
2023/11/03 08:52:36;;;;;;;14.43;13.93;;;10.90;99.90;;;;;;5020122;27;20972;-70
2023/11/03 08:55:06;;;;;;;14.50;14.00;;;11.00;99.90;;;;;;5019516;27;20897;-70
2023/11/03 08:57:33;;;;;;;14.83;14.33;;;11.00;99.90;;;;;;5024012;27;20540;-71
2023/11/03 09:00:02;;;;;;;14.30;13.80;;;11.00;99.90;;;;;;5023396;27;20581;-70
2023/11/03 09:02:29;;;;;;;14.50;14.00;;;10.90;99.90;;;;;;5020189;28;20460;-71
2023/11/03 09:04:56;;;;;;;14.30;13.80;;;11.00;99.90;;;;;;5014503;28;21000;-70
2023/11/03 09:07:23;;;;;;;14.40;13.90;;;11.00;99.90;;;;;;5017073;27;20465;-72
2023/11/03 09:09:50;;;;;;;14.43;13.93;;;11.10;99.90;;;;;;5018684;28;20473;-71
2023/11/03 09:12:17;;;;;;;14.23;13.73;;;11.10;99.90;;;;;;5019294;28;20558;-70
2023/11/03 09:14:44;;;;;;;14.17;13.67;;;11.20;99.90;;;;;;5024337;28;21003;-70
2023/11/03 09:17:12;;;;;;;14.27;13.77;;;11.20;99.90;;;;;;5022064;27;20471;-70
2023/11/03 09:19:39;;;;;;;14.17;13.67;;;11.30;99.90;;;;;;5024505;27;20656;-70
2023/11/03 09:22:06;;;;;;;14.53;14.03;;;11.30;99.90;;;;;;5015954;28;20462;-70
2023/11/03 09:24:33;;;;;;;14.80;14.30;;;11.40;99.90;;;;;;5019732;28;20564;-72
2023/11/03 09:27:00;;;;;;;14.30;13.80;;;11.60;99.90;;;;;;5001072;28;20840;-70
2023/11/03 09:29:27;;;;;;;15.13;14.63;;;11.60;99.90;;;;;;5011630;28;20844;-69
2023/11/03 09:31:55;;;;;;;14.07;13.57;;;11.60;99.90;;;;;;5011727;28;20465;-72
2023/11/03 09:34:23;;;;;;;15.00;14.50;;;11.60;99.90;;;;;;5009684;28;20501;-71
2023/11/03 09:36:50;;;;;;;14.63;14.13;;;11.70;99.90;;;;;;5019478;28;20486;-69
2023/11/03 09:39:17;;;;;;;14.50;14.00;;;11.90;99.90;;;;;;5010481;28;20465;-70
2023/11/03 09:41:52;;;;;;;14.70;14.20;;;12.10;99.90;;;;;;5014890;28;20474;-69
2023/11/03 09:44:20;;;;;;;14.13;13.63;;;12.40;99.90;;;;;;5008334;27;20491;-71
2023/11/03 09:46:48;;;;;;;14.80;14.30;;;12.10;99.90;;;;;;5018727;28;20486;-69
2023/11/03 09:49:15;;;;;;;14.50;14.00;;;12.00;99.90;;;;;;5015703;27;21122;-69
2023/11/03 09:51:48;;;;;;;15.03;14.53;;;11.80;99.90;;;;;;5012898;27;20861;-69
2023/11/03 09:54:15;;;;;;;14.90;14.40;;;11.70;99.90;;;;;;5012834;27;20469;-70
2023/11/03 09:56:45;;;;;;;14.67;14.17;;;11.60;99.90;;;;;;5021270;27;20522;-69
2023/11/03 09:59:12;;;;;;;15.40;14.80;;;11.60;99.90;;;;;;5019094;27;20473;-70
2023/11/03 10:01:39;;;;;;;14.43;13.93;;;11.50;99.90;;;;;;5012311;27;20477;-69
2023/11/03 10:04:07;;;;;;;15.47;14.87;;;11.50;99.90;;;;;;5013371;28;20473;-74
2023/11/03 10:06:34;;;;;;;14.37;13.87;;;11.70;99.90;;;;;;5011041;27;20495;-69
2023/11/03 10:09:02;;;;;;;14.80;14.30;;;11.80;99.90;;;;;;5017240;27;20472;-69
2023/11/03 10:11:30;;;;;;;14.63;14.13;;;11.90;99.90;;;;;;5022462;27;20545;-70
2023/11/03 10:13:57;;;;;;;14.70;14.20;;;12.00;99.90;;;;;;5017117;27;20469;-71
2023/11/03 10:16:24;;;;;;;14.77;14.27;;;12.00;99.90;;;;;;5020220;27;20650;-69
2023/11/03 10:18:51;;;;;;;14.90;14.40;;;12.10;99.90;;;;;;5011441;27;20478;-72
2023/11/03 10:21:18;;;;;;;14.43;13.93;;;12.20;99.90;;;;;;5014884;27;20475;-71
2023/11/03 10:23:45;;;;;;;14.30;13.80;;;12.40;99.90;;;;;;5017766;27;20471;-69
2023/11/03 10:26:14;;;;;;;15.00;14.50;;;12.50;99.90;;;;;;5019391;27;20454;-71
2023/11/03 10:28:44;;;;;;;14.33;13.83;;;12.40;99.90;;;;;;5014850;27;20477;-69
2023/11/03 10:31:11;;;;;;;14.63;14.13;;;12.80;99.90;;;;;;5018619;27;20554;-69
2023/11/03 10:33:40;;;;;;;14.70;14.20;;;13.50;99.90;;;;;;5012060;27;21005;-70
2023/11/03 10:36:08;;;;;;;15.13;14.63;;;13.90;99.90;;;;;;5016178;27;20478;-70
2023/11/03 10:38:36;;;;;;;14.50;14.00;;;13.70;99.90;;;;;;5015635;27;20482;-71
2023/11/03 10:41:07;;;;;;;14.60;14.10;;;13.70;99.90;;;;;;5018130;27;20894;-71
2023/11/03 10:43:39;;;;;;;14.43;13.93;;;13.60;99.90;;;;;;5016480;27;20472;-69
2023/11/03 10:46:13;;;;;;;14.10;13.60;;;13.40;99.90;;;;;;5014038;27;20597;-72
2023/11/03 10:48:43;;;;;;;14.63;14.13;;;13.70;99.90;;;;;;5011414;27;20490;-71
2023/11/03 10:51:18;;;;;;;14.67;14.17;;;13.30;99.90;;;;;;5014238;27;20463;-72
2023/11/03 10:53:55;;;;;;;14.80;14.30;;;12.70;99.90;;;;;;5015713;27;20464;-69
2023/11/03 10:56:22;;;;;;;14.70;14.20;;;12.20;99.90;;;;;;5015539;27;20492;-70
2023/11/03 10:58:51;;;;;;;14.90;14.40;;;12.00;99.90;;;;;;5015651;27;20465;-70
2023/11/03 11:01:22;;;;;;;14.87;14.37;;;12.00;99.90;;;;;;5019241;27;20745;-72
2023/11/03 11:03:55;;;;;;;14.27;13.77;;;12.20;99.90;;;;;;5009620;27;21016;-70
2023/11/03 11:06:26;;;;;;;14.67;14.17;;;12.60;99.90;;;;;;5014051;27;20468;-70
2023/11/03 11:08:59;;;;;;;14.37;13.87;;;13.10;99.90;;;;;;5014357;27;20554;-72
2023/11/03 11:11:26;;;;;;;14.13;13.63;;;13.40;99.90;;;;;;5016300;27;20475;-72
2023/11/03 11:13:54;;;;;;;14.47;13.97;;;13.40;99.90;;;;;;5013198;27;20875;-72
2023/11/03 11:16:22;;;;;;;14.20;13.70;;;13.50;99.90;;;;;;5010358;27;20497;-73
2023/11/03 11:18:53;;;;;;;14.60;14.10;;;13.40;99.90;;;;;;5015209;27;20986;-69
2023/11/03 11:21:30;;;;;;;14.47;13.97;;;13.40;99.90;;;;;;5017978;27;20470;-70
2023/11/03 11:23:57;;;;;;;14.57;14.07;;;13.00;99.90;;;;;;5013970;27;20469;-73
2023/11/03 11:26:25;;;;;;;14.67;14.17;;;13.10;99.90;;;;;;5016549;27;20783;-73
2023/11/03 11:28:54;;;;;;;14.40;13.90;;;13.20;99.90;;;;;;5013776;27;20481;-72
2023/11/03 11:31:51;;;;;;;13.77;13.37;;;13.40;99.90;;;;;;5011119;27;20474;-70
2023/11/03 11:34:20;;;;;;;14.87;14.37;;;13.10;99.90;;;;;;5068974;28;20455;-72
2023/11/03 11:36:47;;;;;;;15.13;14.63;;;12.70;99.90;;;;;;5027030;27;20523;-72
2023/11/03 11:39:17;;;;;;;15.10;14.60;;;12.50;99.90;;;;;;5015217;27;20988;-68
2023/11/03 11:41:50;;;;;;;15.20;14.70;;;12.70;99.90;;;;;;5019497;27;20692;-71
2023/11/03 11:44:21;;;;;;;14.90;14.40;;;12.80;99.90;;;;;;5010318;27;20490;-69
2023/11/03 11:46:56;;;;;;;14.53;14.03;;;12.80;99.90;;;;;;5017288;27;20518;-69
2023/11/03 11:49:24;;;;;;;15.53;14.93;;;12.80;99.90;;;;;;5015020;27;20471;-71
2023/11/03 11:51:52;;;;;;;14.87;14.37;;;13.00;99.90;;;;;;5016582;27;20482;-68
2023/11/03 11:54:20;;;;;;;15.53;14.93;;;13.00;99.90;;;;;;5016736;27;20479;-72
2023/11/03 11:56:48;;;;;;;14.83;14.33;;;13.10;99.90;;;;;;5014886;27;20925;-74
2023/11/03 11:59:32;;;;;;;14.83;14.33;;;13.40;99.90;;;;;;5012556;28;21009;-73
2023/11/03 12:02:00;;;;;;;15.33;14.83;;;13.90;99.90;;;;;;5013008;27;20459;-70
2023/11/03 12:04:28;;;;;;;15.43;14.83;;;14.00;99.90;;;;;;5016752;27;20466;-73
2023/11/03 12:06:56;;;;;;;15.10;14.60;;;14.10;99.90;;;;;;5015603;28;21322;-70
2023/11/03 12:09:23;;;;;;;15.17;14.67;;;13.80;99.90;;;;;;5013473;27;20470;-72
2023/11/03 12:11:51;;;;;;;15.30;14.80;;;13.70;99.90;;;;;;5012824;27;20473;-69
2023/11/03 12:14:18;;;;;;;15.13;14.63;;;13.60;99.90;;;;;;5011100;27;20473;-70
2023/11/03 12:16:46;;;;;;;15.53;14.93;;;13.30;99.90;;;;;;5014930;28;20594;-72
2023/11/03 12:19:15;;;;;;;15.87;15.27;;;13.30;99.90;;;;;;5014063;27;20464;-73
2023/11/03 12:21:43;;;;;;;14.80;14.30;;;13.40;99.90;;;;;;5012263;27;20463;-70
2023/11/03 12:24:12;;;;;;;15.10;14.60;;;13.80;99.90;;;;;;5012296;27;20769;-70
2023/11/03 12:26:39;;;;;;;15.33;14.80;;;13.80;99.90;;;;;;5002469;28;20467;-72
2023/11/03 12:29:27;;;;;;;15.90;15.30;;;13.60;99.90;;;;;;5008541;27;20468;-71
2023/11/03 12:31:56;;;;;;;15.50;14.97;;;13.40;99.90;;;;;;5007362;27;20893;-73
2023/11/03 12:34:24;;;;;;;15.10;14.60;;;13.50;99.90;;;;;;5010817;28;20822;-71
2023/11/03 12:36:51;;;;;;;15.67;15.07;;;13.80;99.90;;;;;;5008610;28;21096;-71